sensor_id;sensor_type;location;lat;lon;timestamp;P1;durP1;ratioP1;P2;durP2;ratioP2
79761;SDS011;69249;42.122;24.734;2023-04-24T00:00:34;8.13;;;5.82;;
79761;SDS011;69249;42.122;24.734;2023-04-24T00:03:01;7.82;;;5.15;;
79761;SDS011;69249;42.122;24.734;2023-04-24T00:05:28;7.47;;;5.68;;
79761;SDS011;69249;42.122;24.734;2023-04-24T00:07:53;10.75;;;6.57;;
79761;SDS011;69249;42.122;24.734;2023-04-24T00:10:20;8.30;;;5.43;;
79761;SDS011;69249;42.122;24.734;2023-04-24T00:12:46;7.90;;;5.88;;
79761;SDS011;69249;42.122;24.734;2023-04-24T00:15:11;7.07;;;5.07;;
79761;SDS011;69249;42.122;24.734;2023-04-24T00:17:37;8.40;;;6.03;;
79761;SDS011;69249;42.122;24.734;2023-04-24T00:20:03;10.02;;;6.20;;
79761;SDS011;69249;42.122;24.734;2023-04-24T00:22:31;9.02;;;5.88;;
79761;SDS011;69249;42.122;24.734;2023-04-24T00:24:57;9.75;;;5.88;;
79761;SDS011;69249;42.122;24.734;2023-04-24T00:27:23;7.15;;;5.53;;
79761;SDS011;69249;42.122;24.734;2023-04-24T00:29:49;8.40;;;5.10;;
79761;SDS011;69249;42.122;24.734;2023-04-24T00:32:14;8.98;;;5.55;;
79761;SDS011;69249;42.122;24.734;2023-04-24T00:34:41;7.28;;;5.20;;
79761;SDS011;69249;42.122;24.734;2023-04-24T00:37:06;8.27;;;5.75;;
79761;SDS011;69249;42.122;24.734;2023-04-24T00:39:32;8.88;;;5.95;;
79761;SDS011;69249;42.122;24.734;2023-04-24T00:41:58;8.48;;;5.82;;
79761;SDS011;69249;42.122;24.734;2023-04-24T00:44:24;10.45;;;7.88;;
79761;SDS011;69249;42.122;24.734;2023-04-24T00:46:50;10.45;;;7.63;;
79761;SDS011;69249;42.122;24.734;2023-04-24T00:49:19;11.73;;;8.68;;
79761;SDS011;69249;42.122;24.734;2023-04-24T00:51:45;10.75;;;8.90;;
79761;SDS011;69249;42.122;24.734;2023-04-24T00:54:15;10.45;;;8.65;;
79761;SDS011;69249;42.122;24.734;2023-04-24T00:56:41;15.63;;;9.05;;
79761;SDS011;69249;42.122;24.734;2023-04-24T00:59:08;14.73;;;9.25;;
79761;SDS011;69249;42.122;24.734;2023-04-24T01:01:34;13.35;;;9.77;;
79761;SDS011;69249;42.122;24.734;2023-04-24T01:04:00;13.10;;;9.43;;
79761;SDS011;69249;42.122;24.734;2023-04-24T01:06:27;9.93;;;9.00;;
79761;SDS011;69249;42.122;24.734;2023-04-24T01:08:56;12.02;;;9.50;;
79761;SDS011;69249;42.122;24.734;2023-04-24T01:11:24;13.75;;;10.15;;
79761;SDS011;69249;42.122;24.734;2023-04-24T01:13:50;11.57;;;9.45;;
79761;SDS011;69249;42.122;24.734;2023-04-24T01:16:16;13.98;;;9.38;;
79761;SDS011;69249;42.122;24.734;2023-04-24T01:18:42;12.38;;;9.02;;
79761;SDS011;69249;42.122;24.734;2023-04-24T01:21:09;11.18;;;8.77;;
79761;SDS011;69249;42.122;24.734;2023-04-24T01:23:39;10.95;;;8.35;;
79761;SDS011;69249;42.122;24.734;2023-04-24T01:26:05;12.35;;;9.05;;
79761;SDS011;69249;42.122;24.734;2023-04-24T01:28:30;10.00;;;8.07;;
79761;SDS011;69249;42.122;24.734;2023-04-24T01:30:56;13.05;;;9.02;;
79761;SDS011;69249;42.122;24.734;2023-04-24T01:33:22;15.00;;;8.88;;
79761;SDS011;69249;42.122;24.734;2023-04-24T01:35:48;14.90;;;10.02;;
79761;SDS011;69249;42.122;24.734;2023-04-24T01:38:14;12.68;;;9.95;;
79761;SDS011;69249;42.122;24.734;2023-04-24T01:40:40;12.35;;;9.55;;
79761;SDS011;69249;42.122;24.734;2023-04-24T01:43:06;13.20;;;9.32;;
79761;SDS011;69249;42.122;24.734;2023-04-24T01:45:32;12.60;;;10.20;;
79761;SDS011;69249;42.122;24.734;2023-04-24T01:47:58;16.73;;;10.27;;
79761;SDS011;69249;42.122;24.734;2023-04-24T01:50:25;14.75;;;10.05;;
79761;SDS011;69249;42.122;24.734;2023-04-24T01:52:51;11.18;;;9.30;;
79761;SDS011;69249;42.122;24.734;2023-04-24T01:55:16;11.32;;;9.45;;
79761;SDS011;69249;42.122;24.734;2023-04-24T01:57:42;15.50;;;11.10;;
79761;SDS011;69249;42.122;24.734;2023-04-24T02:00:08;14.13;;;11.15;;
79761;SDS011;69249;42.122;24.734;2023-04-24T02:02:36;15.68;;;11.55;;
79761;SDS011;69249;42.122;24.734;2023-04-24T02:05:02;15.02;;;11.75;;
79761;SDS011;69249;42.122;24.734;2023-04-24T02:07:30;13.20;;;11.50;;
79761;SDS011;69249;42.122;24.734;2023-04-24T02:09:56;15.85;;;11.38;;
79761;SDS011;69249;42.122;24.734;2023-04-24T02:12:22;13.45;;;11.02;;
79761;SDS011;69249;42.122;24.734;2023-04-24T02:14:48;12.75;;;10.75;;
79761;SDS011;69249;42.122;24.734;2023-04-24T02:17:13;15.45;;;10.02;;
79761;SDS011;69249;42.122;24.734;2023-04-24T02:19:40;11.55;;;9.80;;
79761;SDS011;69249;42.122;24.734;2023-04-24T02:22:06;16.05;;;11.48;;
79761;SDS011;69249;42.122;24.734;2023-04-24T02:24:31;11.02;;;9.20;;
79761;SDS011;69249;42.122;24.734;2023-04-24T02:26:57;13.25;;;9.50;;
79761;SDS011;69249;42.122;24.734;2023-04-24T02:29:23;11.80;;;8.85;;
79761;SDS011;69249;42.122;24.734;2023-04-24T02:31:49;14.38;;;8.93;;
79761;SDS011;69249;42.122;24.734;2023-04-24T02:34:15;11.07;;;8.88;;
79761;SDS011;69249;42.122;24.734;2023-04-24T02:36:41;12.57;;;9.32;;
79761;SDS011;69249;42.122;24.734;2023-04-24T02:39:07;13.32;;;9.45;;
79761;SDS011;69249;42.122;24.734;2023-04-24T02:41:33;14.93;;;10.13;;
79761;SDS011;69249;42.122;24.734;2023-04-24T02:43:58;11.13;;;9.48;;
79761;SDS011;69249;42.122;24.734;2023-04-24T02:46:24;11.68;;;10.43;;
79761;SDS011;69249;42.122;24.734;2023-04-24T02:48:50;11.02;;;9.40;;
79761;SDS011;69249;42.122;24.734;2023-04-24T02:51:16;13.65;;;10.00;;
79761;SDS011;69249;42.122;24.734;2023-04-24T02:53:42;12.40;;;9.13;;
79761;SDS011;69249;42.122;24.734;2023-04-24T02:56:08;11.35;;;10.13;;
79761;SDS011;69249;42.122;24.734;2023-04-24T02:58:33;10.68;;;9.25;;
79761;SDS011;69249;42.122;24.734;2023-04-24T03:01:00;12.40;;;9.63;;
79761;SDS011;69249;42.122;24.734;2023-04-24T03:03:26;14.75;;;9.70;;
79761;SDS011;69249;42.122;24.734;2023-04-24T03:05:51;14.30;;;9.68;;
79761;SDS011;69249;42.122;24.734;2023-04-24T03:08:17;17.58;;;10.77;;
79761;SDS011;69249;42.122;24.734;2023-04-24T03:10:43;13.20;;;9.52;;
79761;SDS011;69249;42.122;24.734;2023-04-24T03:13:09;12.85;;;10.10;;
79761;SDS011;69249;42.122;24.734;2023-04-24T03:15:34;12.35;;;10.27;;
79761;SDS011;69249;42.122;24.734;2023-04-24T03:18:00;13.75;;;9.98;;
79761;SDS011;69249;42.122;24.734;2023-04-24T03:20:27;11.52;;;10.23;;
79761;SDS011;69249;42.122;24.734;2023-04-24T03:22:53;16.17;;;11.00;;
79761;SDS011;69249;42.122;24.734;2023-04-24T03:25:19;13.95;;;10.13;;
79761;SDS011;69249;42.122;24.734;2023-04-24T03:27:45;15.70;;;9.65;;
79761;SDS011;69249;42.122;24.734;2023-04-24T03:30:11;15.43;;;10.18;;
79761;SDS011;69249;42.122;24.734;2023-04-24T03:32:38;17.02;;;9.88;;
79761;SDS011;69249;42.122;24.734;2023-04-24T03:35:05;14.82;;;10.65;;
79761;SDS011;69249;42.122;24.734;2023-04-24T03:37:32;20.42;;;10.88;;
79761;SDS011;69249;42.122;24.734;2023-04-24T03:39:57;14.23;;;10.73;;
79761;SDS011;69249;42.122;24.734;2023-04-24T03:42:23;18.80;;;11.63;;
79761;SDS011;69249;42.122;24.734;2023-04-24T03:44:49;17.48;;;12.57;;
79761;SDS011;69249;42.122;24.734;2023-04-24T03:47:16;18.15;;;13.27;;
79761;SDS011;69249;42.122;24.734;2023-04-24T03:49:42;15.40;;;11.65;;
79761;SDS011;69249;42.122;24.734;2023-04-24T03:52:07;16.85;;;11.48;;
79761;SDS011;69249;42.122;24.734;2023-04-24T03:54:33;16.58;;;12.43;;
79761;SDS011;69249;42.122;24.734;2023-04-24T03:56:59;28.13;;;12.15;;
79761;SDS011;69249;42.122;24.734;2023-04-24T03:59:25;15.40;;;11.45;;
79761;SDS011;69249;42.122;24.734;2023-04-24T04:01:50;22.23;;;11.40;;
79761;SDS011;69249;42.122;24.734;2023-04-24T04:04:16;18.60;;;11.15;;
79761;SDS011;69249;42.122;24.734;2023-04-24T04:06:42;16.83;;;10.95;;
79761;SDS011;69249;42.122;24.734;2023-04-24T04:09:09;20.13;;;12.63;;
79761;SDS011;69249;42.122;24.734;2023-04-24T04:11:35;20.13;;;12.65;;
79761;SDS011;69249;42.122;24.734;2023-04-24T04:14:01;23.50;;;11.82;;
79761;SDS011;69249;42.122;24.734;2023-04-24T04:16:27;13.55;;;10.75;;
79761;SDS011;69249;42.122;24.734;2023-04-24T04:18:52;16.98;;;10.25;;
79761;SDS011;69249;42.122;24.734;2023-04-24T04:21:18;16.48;;;10.05;;
79761;SDS011;69249;42.122;24.734;2023-04-24T04:23:44;13.90;;;9.73;;
79761;SDS011;69249;42.122;24.734;2023-04-24T04:26:10;14.35;;;10.25;;
79761;SDS011;69249;42.122;24.734;2023-04-24T04:28:43;21.33;;;10.35;;
79761;SDS011;69249;42.122;24.734;2023-04-24T04:31:32;19.90;;;10.57;;
79761;SDS011;69249;42.122;24.734;2023-04-24T04:33:57;26.95;;;11.75;;
79761;SDS011;69249;42.122;24.734;2023-04-24T04:36:26;16.33;;;10.60;;
79761;SDS011;69249;42.122;24.734;2023-04-24T04:38:54;23.15;;;11.98;;
79761;SDS011;69249;42.122;24.734;2023-04-24T04:41:24;13.82;;;10.43;;
79761;SDS011;69249;42.122;24.734;2023-04-24T04:43:51;16.95;;;10.68;;
79761;SDS011;69249;42.122;24.734;2023-04-24T04:46:17;15.27;;;10.38;;
79761;SDS011;69249;42.122;24.734;2023-04-24T04:48:46;12.77;;;10.50;;
79761;SDS011;69249;42.122;24.734;2023-04-24T04:51:12;16.70;;;10.85;;
79761;SDS011;69249;42.122;24.734;2023-04-24T04:53:38;14.95;;;10.55;;
79761;SDS011;69249;42.122;24.734;2023-04-24T04:56:06;13.13;;;11.02;;
79761;SDS011;69249;42.122;24.734;2023-04-24T04:58:32;18.63;;;10.98;;
79761;SDS011;69249;42.122;24.734;2023-04-24T05:00:58;19.00;;;10.98;;
79761;SDS011;69249;42.122;24.734;2023-04-24T05:03:26;16.83;;;11.45;;
79761;SDS011;69249;42.122;24.734;2023-04-24T05:05:52;21.33;;;11.70;;
79761;SDS011;69249;42.122;24.734;2023-04-24T05:08:18;17.70;;;11.60;;
79761;SDS011;69249;42.122;24.734;2023-04-24T05:10:44;22.30;;;13.70;;
79761;SDS011;69249;42.122;24.734;2023-04-24T05:13:43;14.13;;;11.23;;
79761;SDS011;69249;42.122;24.734;2023-04-24T05:16:15;15.73;;;10.10;;
79761;SDS011;69249;42.122;24.734;2023-04-24T05:18:44;20.67;;;11.48;;
79761;SDS011;69249;42.122;24.734;2023-04-24T05:21:29;19.08;;;11.25;;
79761;SDS011;69249;42.122;24.734;2023-04-24T05:23:58;18.13;;;10.98;;
79761;SDS011;69249;42.122;24.734;2023-04-24T05:26:39;19.77;;;10.98;;
79761;SDS011;69249;42.122;24.734;2023-04-24T05:29:14;17.52;;;10.35;;
79761;SDS011;69249;42.122;24.734;2023-04-24T05:31:40;19.23;;;10.73;;
79761;SDS011;69249;42.122;24.734;2023-04-24T05:34:13;17.60;;;10.32;;
79761;SDS011;69249;42.122;24.734;2023-04-24T05:36:45;18.25;;;10.55;;
79761;SDS011;69249;42.122;24.734;2023-04-24T05:39:33;25.05;;;10.20;;
79761;SDS011;69249;42.122;24.734;2023-04-24T05:42:06;13.05;;;8.95;;
79761;SDS011;69249;42.122;24.734;2023-04-24T05:44:41;17.03;;;9.60;;
79761;SDS011;69249;42.122;24.734;2023-04-24T05:47:12;20.50;;;11.27;;
79761;SDS011;69249;42.122;24.734;2023-04-24T05:49:38;24.00;;;9.80;;
79761;SDS011;69249;42.122;24.734;2023-04-24T05:52:06;22.50;;;9.93;;
79761;SDS011;69249;42.122;24.734;2023-04-24T05:54:33;19.25;;;8.80;;
79761;SDS011;69249;42.122;24.734;2023-04-24T05:57:00;17.33;;;9.15;;
79761;SDS011;69249;42.122;24.734;2023-04-24T05:59:29;20.02;;;9.73;;
79761;SDS011;69249;42.122;24.734;2023-04-24T06:01:55;29.50;;;9.88;;
79761;SDS011;69249;42.122;24.734;2023-04-24T06:04:21;19.90;;;9.02;;
79761;SDS011;69249;42.122;24.734;2023-04-24T06:06:59;18.77;;;9.95;;
79761;SDS011;69249;42.122;24.734;2023-04-24T06:09:25;14.48;;;9.70;;
79761;SDS011;69249;42.122;24.734;2023-04-24T06:11:51;17.48;;;10.00;;
79761;SDS011;69249;42.122;24.734;2023-04-24T06:14:18;19.38;;;10.02;;
79761;SDS011;69249;42.122;24.734;2023-04-24T06:16:44;21.90;;;11.18;;
79761;SDS011;69249;42.122;24.734;2023-04-24T06:19:10;22.52;;;10.05;;
79761;SDS011;69249;42.122;24.734;2023-04-24T06:21:36;17.33;;;9.23;;
79761;SDS011;69249;42.122;24.734;2023-04-24T06:24:02;25.50;;;15.82;;
79761;SDS011;69249;42.122;24.734;2023-04-24T06:26:29;18.05;;;10.82;;
79761;SDS011;69249;42.122;24.734;2023-04-24T06:28:58;16.13;;;8.07;;
79761;SDS011;69249;42.122;24.734;2023-04-24T06:31:25;14.05;;;7.85;;
79761;SDS011;69249;42.122;24.734;2023-04-24T06:33:51;13.55;;;8.25;;
79761;SDS011;69249;42.122;24.734;2023-04-24T06:39:06;21.75;;;8.00;;
79761;SDS011;69249;42.122;24.734;2023-04-24T06:41:35;15.60;;;7.85;;
79761;SDS011;69249;42.122;24.734;2023-04-24T06:44:00;22.05;;;7.18;;
79761;SDS011;69249;42.122;24.734;2023-04-24T06:46:29;14.10;;;6.93;;
79761;SDS011;69249;42.122;24.734;2023-04-24T06:48:55;14.57;;;7.50;;
79761;SDS011;69249;42.122;24.734;2023-04-24T06:51:22;16.67;;;7.20;;
79761;SDS011;69249;42.122;24.734;2023-04-24T06:53:48;14.77;;;7.75;;
79761;SDS011;69249;42.122;24.734;2023-04-24T06:56:15;15.57;;;8.05;;
79761;SDS011;69249;42.122;24.734;2023-04-24T06:58:40;14.38;;;7.15;;
79761;SDS011;69249;42.122;24.734;2023-04-24T07:01:07;15.88;;;7.10;;
79761;SDS011;69249;42.122;24.734;2023-04-24T07:03:35;14.90;;;7.55;;
79761;SDS011;69249;42.122;24.734;2023-04-24T07:06:18;9.93;;;6.80;;
79761;SDS011;69249;42.122;24.734;2023-04-24T07:08:47;10.55;;;7.10;;
79761;SDS011;69249;42.122;24.734;2023-04-24T07:11:13;11.57;;;7.47;;
79761;SDS011;69249;42.122;24.734;2023-04-24T07:13:48;14.30;;;8.77;;
79761;SDS011;69249;42.122;24.734;2023-04-24T07:16:28;12.48;;;7.45;;
79761;SDS011;69249;42.122;24.734;2023-04-24T07:19:02;18.52;;;10.60;;
79761;SDS011;69249;42.122;24.734;2023-04-24T07:21:29;9.93;;;7.10;;
79761;SDS011;69249;42.122;24.734;2023-04-24T07:23:57;15.13;;;8.20;;
79761;SDS011;69249;42.122;24.734;2023-04-24T07:26:23;9.98;;;7.22;;
79761;SDS011;69249;42.122;24.734;2023-04-24T07:28:49;12.88;;;7.95;;
79761;SDS011;69249;42.122;24.734;2023-04-24T07:31:14;12.75;;;7.25;;
79761;SDS011;69249;42.122;24.734;2023-04-24T07:33:40;14.23;;;7.65;;
79761;SDS011;69249;42.122;24.734;2023-04-24T07:36:06;13.52;;;7.93;;
79761;SDS011;69249;42.122;24.734;2023-04-24T07:38:32;15.88;;;8.32;;
79761;SDS011;69249;42.122;24.734;2023-04-24T07:40:58;17.15;;;8.20;;
79761;SDS011;69249;42.122;24.734;2023-04-24T07:43:33;13.27;;;9.13;;
79761;SDS011;69249;42.122;24.734;2023-04-24T07:46:09;9.70;;;6.35;;
79761;SDS011;69249;42.122;24.734;2023-04-24T07:48:38;10.02;;;6.68;;
79761;SDS011;69249;42.122;24.734;2023-04-24T07:51:04;13.10;;;6.43;;
79761;SDS011;69249;42.122;24.734;2023-04-24T07:53:30;15.15;;;6.90;;
79761;SDS011;69249;42.122;24.734;2023-04-24T07:56:17;13.60;;;7.28;;
79761;SDS011;69249;42.122;24.734;2023-04-24T07:58:42;11.20;;;7.63;;
79761;SDS011;69249;42.122;24.734;2023-04-24T08:01:08;10.30;;;6.65;;
79761;SDS011;69249;42.122;24.734;2023-04-24T08:03:34;9.77;;;7.03;;
79761;SDS011;69249;42.122;24.734;2023-04-24T08:06:00;9.23;;;6.50;;
79761;SDS011;69249;42.122;24.734;2023-04-24T08:08:26;22.45;;;7.55;;
79761;SDS011;69249;42.122;24.734;2023-04-24T08:10:54;8.90;;;6.95;;
79761;SDS011;69249;42.122;24.734;2023-04-24T08:13:29;11.23;;;7.10;;
79761;SDS011;69249;42.122;24.734;2023-04-24T08:15:57;13.45;;;7.88;;
79761;SDS011;69249;42.122;24.734;2023-04-24T08:18:23;15.38;;;8.13;;
79761;SDS011;69249;42.122;24.734;2023-04-24T08:20:49;11.82;;;7.45;;
79761;SDS011;69249;42.122;24.734;2023-04-24T08:23:14;13.05;;;9.82;;
79761;SDS011;69249;42.122;24.734;2023-04-24T08:28:13;14.52;;;9.27;;
79761;SDS011;69249;42.122;24.734;2023-04-24T08:30:45;10.67;;;7.20;;
79761;SDS011;69249;42.122;24.734;2023-04-24T08:33:12;10.07;;;7.55;;
79761;SDS011;69249;42.122;24.734;2023-04-24T08:35:39;11.75;;;7.75;;
79761;SDS011;69249;42.122;24.734;2023-04-24T08:41:00;12.70;;;7.82;;
79761;SDS011;69249;42.122;24.734;2023-04-24T08:43:33;14.23;;;7.95;;
79761;SDS011;69249;42.122;24.734;2023-04-24T08:46:07;12.07;;;7.57;;
79761;SDS011;69249;42.122;24.734;2023-04-24T08:48:35;13.37;;;7.43;;
79761;SDS011;69249;42.122;24.734;2023-04-24T08:51:06;13.27;;;7.78;;
79761;SDS011;69249;42.122;24.734;2023-04-24T08:53:33;8.90;;;7.57;;
79761;SDS011;69249;42.122;24.734;2023-04-24T08:56:01;12.32;;;7.45;;
79761;SDS011;69249;42.122;24.734;2023-04-24T09:01:47;10.93;;;7.10;;
79761;SDS011;69249;42.122;24.734;2023-04-24T09:07:49;11.32;;;6.40;;
79761;SDS011;69249;42.122;24.734;2023-04-24T09:10:27;14.13;;;6.88;;
79761;SDS011;69249;42.122;24.734;2023-04-24T09:13:16;11.02;;;7.43;;
79761;SDS011;69249;42.122;24.734;2023-04-24T09:16:04;11.38;;;7.22;;
79761;SDS011;69249;42.122;24.734;2023-04-24T09:18:33;11.43;;;6.30;;
79761;SDS011;69249;42.122;24.734;2023-04-24T09:21:12;7.32;;;5.55;;
79761;SDS011;69249;42.122;24.734;2023-04-24T09:26:47;20.15;;;7.03;;
79761;SDS011;69249;42.122;24.734;2023-04-24T09:29:17;6.40;;;5.55;;
79761;SDS011;69249;42.122;24.734;2023-04-24T09:31:44;8.85;;;6.43;;
79761;SDS011;69249;42.122;24.734;2023-04-24T09:34:28;6.97;;;6.28;;
79761;SDS011;69249;42.122;24.734;2023-04-24T09:37:09;9.02;;;5.78;;
79761;SDS011;69249;42.122;24.734;2023-04-24T09:39:35;10.88;;;6.20;;
79761;SDS011;69249;42.122;24.734;2023-04-24T09:42:00;9.35;;;6.38;;
79761;SDS011;69249;42.122;24.734;2023-04-24T09:44:36;7.63;;;6.10;;
79761;SDS011;69249;42.122;24.734;2023-04-24T09:47:11;9.85;;;6.22;;
79761;SDS011;69249;42.122;24.734;2023-04-24T09:49:38;8.20;;;6.28;;
79761;SDS011;69249;42.122;24.734;2023-04-24T09:52:06;9.35;;;5.65;;
79761;SDS011;69249;42.122;24.734;2023-04-24T09:54:36;9.32;;;5.97;;
79761;SDS011;69249;42.122;24.734;2023-04-24T09:57:07;9.40;;;5.68;;
79761;SDS011;69249;42.122;24.734;2023-04-24T09:59:34;11.07;;;6.07;;
79761;SDS011;69249;42.122;24.734;2023-04-24T10:02:00;24.95;;;6.45;;
79761;SDS011;69249;42.122;24.734;2023-04-24T10:04:32;11.10;;;5.50;;
79761;SDS011;69249;42.122;24.734;2023-04-24T10:07:07;10.73;;;7.53;;
79761;SDS011;69249;42.122;24.734;2023-04-24T10:09:35;11.23;;;6.50;;
79761;SDS011;69249;42.122;24.734;2023-04-24T10:12:01;11.30;;;6.40;;
79761;SDS011;69249;42.122;24.734;2023-04-24T10:14:28;14.95;;;5.70;;
79761;SDS011;69249;42.122;24.734;2023-04-24T10:16:55;8.77;;;6.30;;
79761;SDS011;69249;42.122;24.734;2023-04-24T10:19:45;11.75;;;6.38;;
79761;SDS011;69249;42.122;24.734;2023-04-24T10:22:12;13.90;;;6.82;;
79761;SDS011;69249;42.122;24.734;2023-04-24T10:24:40;15.05;;;6.30;;
79761;SDS011;69249;42.122;24.734;2023-04-24T10:27:09;21.13;;;7.13;;
79761;SDS011;69249;42.122;24.734;2023-04-24T10:29:48;8.75;;;6.22;;
79761;SDS011;69249;42.122;24.734;2023-04-24T10:32:20;8.05;;;6.65;;
79761;SDS011;69249;42.122;24.734;2023-04-24T10:34:45;12.75;;;7.95;;
79761;SDS011;69249;42.122;24.734;2023-04-24T10:37:11;16.77;;;6.60;;
79761;SDS011;69249;42.122;24.734;2023-04-24T10:39:42;10.80;;;6.40;;
79761;SDS011;69249;42.122;24.734;2023-04-24T10:42:16;6.53;;;5.72;;
79761;SDS011;69249;42.122;24.734;2023-04-24T10:44:42;14.45;;;7.30;;
79761;SDS011;69249;42.122;24.734;2023-04-24T10:47:28;9.80;;;6.20;;
79761;SDS011;69249;42.122;24.734;2023-04-24T10:49:54;9.93;;;5.00;;
79761;SDS011;69249;42.122;24.734;2023-04-24T10:52:26;9.32;;;6.22;;
79761;SDS011;69249;42.122;24.734;2023-04-24T10:55:09;12.15;;;6.00;;
79761;SDS011;69249;42.122;24.734;2023-04-24T10:57:37;11.50;;;8.48;;
79761;SDS011;69249;42.122;24.734;2023-04-24T11:00:15;6.43;;;5.63;;
79761;SDS011;69249;42.122;24.734;2023-04-24T11:02:49;9.18;;;5.72;;
79761;SDS011;69249;42.122;24.734;2023-04-24T11:05:19;15.63;;;6.03;;
79761;SDS011;69249;42.122;24.734;2023-04-24T11:08:21;13.68;;;6.50;;
79761;SDS011;69249;42.122;24.734;2023-04-24T11:11:28;8.23;;;5.43;;
79761;SDS011;69249;42.122;24.734;2023-04-24T11:21:30;13.80;;;5.80;;
79761;SDS011;69249;42.122;24.734;2023-04-24T11:29:42;8.52;;;5.10;;
79761;SDS011;69249;42.122;24.734;2023-04-24T11:35:00;12.60;;;6.18;;
79761;SDS011;69249;42.122;24.734;2023-04-24T11:38:08;11.68;;;5.10;;
79761;SDS011;69249;42.122;24.734;2023-04-24T11:41:08;7.30;;;4.05;;
79761;SDS011;69249;42.122;24.734;2023-04-24T11:46:38;7.78;;;4.15;;
79761;SDS011;69249;42.122;24.734;2023-04-24T11:49:05;8.82;;;4.22;;
79761;SDS011;69249;42.122;24.734;2023-04-24T11:52:06;10.48;;;4.28;;
79761;SDS011;69249;42.122;24.734;2023-04-24T11:54:39;5.28;;;3.63;;
79761;SDS011;69249;42.122;24.734;2023-04-24T11:57:13;7.45;;;3.97;;
79761;SDS011;69249;42.122;24.734;2023-04-24T11:59:39;10.90;;;4.18;;
79761;SDS011;69249;42.122;24.734;2023-04-24T12:02:24;7.28;;;3.35;;
79761;SDS011;69249;42.122;24.734;2023-04-24T12:04:54;10.90;;;3.50;;
79761;SDS011;69249;42.122;24.734;2023-04-24T12:07:24;8.52;;;3.40;;
79761;SDS011;69249;42.122;24.734;2023-04-24T12:09:56;13.60;;;3.83;;
79761;SDS011;69249;42.122;24.734;2023-04-24T12:12:27;8.13;;;3.70;;
79761;SDS011;69249;42.122;24.734;2023-04-24T12:14:57;11.32;;;3.70;;
79761;SDS011;69249;42.122;24.734;2023-04-24T12:17:27;6.90;;;3.33;;
79761;SDS011;69249;42.122;24.734;2023-04-24T12:19:59;7.70;;;3.45;;
79761;SDS011;69249;42.122;24.734;2023-04-24T12:22:26;7.22;;;3.40;;
79761;SDS011;69249;42.122;24.734;2023-04-24T12:24:59;5.88;;;3.35;;
79761;SDS011;69249;42.122;24.734;2023-04-24T12:27:31;5.38;;;3.20;;
79761;SDS011;69249;42.122;24.734;2023-04-24T12:30:01;10.48;;;3.63;;
79761;SDS011;69249;42.122;24.734;2023-04-24T12:32:29;8.30;;;3.05;;
79761;SDS011;69249;42.122;24.734;2023-04-24T12:34:55;5.38;;;3.10;;
79761;SDS011;69249;42.122;24.734;2023-04-24T12:37:25;4.88;;;3.20;;
79761;SDS011;69249;42.122;24.734;2023-04-24T12:39:58;8.48;;;3.10;;
79761;SDS011;69249;42.122;24.734;2023-04-24T12:42:53;8.45;;;3.08;;
79761;SDS011;69249;42.122;24.734;2023-04-24T12:45:22;5.00;;;2.92;;
79761;SDS011;69249;42.122;24.734;2023-04-24T12:47:49;6.93;;;3.30;;
79761;SDS011;69249;42.122;24.734;2023-04-24T12:50:15;4.90;;;3.22;;
79761;SDS011;69249;42.122;24.734;2023-04-24T12:52:42;7.03;;;3.72;;
79761;SDS011;69249;42.122;24.734;2023-04-24T12:55:08;6.90;;;3.28;;
79761;SDS011;69249;42.122;24.734;2023-04-24T12:57:34;5.03;;;3.10;;
79761;SDS011;69249;42.122;24.734;2023-04-24T13:00:02;6.88;;;3.45;;
79761;SDS011;69249;42.122;24.734;2023-04-24T13:02:29;8.25;;;4.00;;
79761;SDS011;69249;42.122;24.734;2023-04-24T13:04:56;6.07;;;3.25;;
79761;SDS011;69249;42.122;24.734;2023-04-24T13:07:25;5.93;;;3.28;;
79761;SDS011;69249;42.122;24.734;2023-04-24T13:09:52;4.43;;;3.10;;
79761;SDS011;69249;42.122;24.734;2023-04-24T13:12:19;11.68;;;3.20;;
79761;SDS011;69249;42.122;24.734;2023-04-24T13:14:45;8.55;;;4.00;;
79761;SDS011;69249;42.122;24.734;2023-04-24T13:17:11;6.68;;;3.55;;
79761;SDS011;69249;42.122;24.734;2023-04-24T13:19:38;9.57;;;3.70;;
79761;SDS011;69249;42.122;24.734;2023-04-24T13:22:05;4.20;;;3.28;;
79761;SDS011;69249;42.122;24.734;2023-04-24T13:24:32;4.13;;;3.15;;
79761;SDS011;69249;42.122;24.734;2023-04-24T13:26:58;6.68;;;3.38;;
79761;SDS011;69249;42.122;24.734;2023-04-24T13:29:25;5.00;;;3.33;;
79761;SDS011;69249;42.122;24.734;2023-04-24T13:31:51;7.88;;;3.40;;
79761;SDS011;69249;42.122;24.734;2023-04-24T13:34:24;10.00;;;3.30;;
79761;SDS011;69249;42.122;24.734;2023-04-24T13:36:54;8.57;;;3.78;;
79761;SDS011;69249;42.122;24.734;2023-04-24T13:39:21;5.60;;;3.53;;
79761;SDS011;69249;42.122;24.734;2023-04-24T13:41:47;5.68;;;3.70;;
79761;SDS011;69249;42.122;24.734;2023-04-24T13:44:14;9.82;;;3.65;;
79761;SDS011;69249;42.122;24.734;2023-04-24T13:46:40;5.57;;;3.40;;
79761;SDS011;69249;42.122;24.734;2023-04-24T13:49:07;5.18;;;3.08;;
79761;SDS011;69249;42.122;24.734;2023-04-24T13:51:33;6.55;;;2.85;;
79761;SDS011;69249;42.122;24.734;2023-04-24T13:53:59;4.57;;;3.10;;
79761;SDS011;69249;42.122;24.734;2023-04-24T13:56:25;7.80;;;3.33;;
79761;SDS011;69249;42.122;24.734;2023-04-24T13:58:51;6.20;;;3.22;;
79761;SDS011;69249;42.122;24.734;2023-04-24T14:01:19;7.05;;;3.45;;
79761;SDS011;69249;42.122;24.734;2023-04-24T14:03:46;6.20;;;3.88;;
79761;SDS011;69249;42.122;24.734;2023-04-24T14:06:11;6.63;;;3.65;;
79761;SDS011;69249;42.122;24.734;2023-04-24T14:08:37;6.40;;;3.92;;
79761;SDS011;69249;42.122;24.734;2023-04-24T14:11:03;6.40;;;3.42;;
79761;SDS011;69249;42.122;24.734;2023-04-24T14:13:29;5.20;;;3.45;;
79761;SDS011;69249;42.122;24.734;2023-04-24T14:15:55;6.28;;;3.42;;
79761;SDS011;69249;42.122;24.734;2023-04-24T14:18:21;6.68;;;3.60;;
79761;SDS011;69249;42.122;24.734;2023-04-24T14:20:46;7.28;;;3.47;;
79761;SDS011;69249;42.122;24.734;2023-04-24T14:23:12;4.40;;;3.38;;
79761;SDS011;69249;42.122;24.734;2023-04-24T14:25:38;7.07;;;3.75;;
79761;SDS011;69249;42.122;24.734;2023-04-24T14:28:03;5.97;;;3.20;;
79761;SDS011;69249;42.122;24.734;2023-04-24T14:30:31;4.90;;;3.20;;
79761;SDS011;69249;42.122;24.734;2023-04-24T14:32:57;4.07;;;3.38;;
79761;SDS011;69249;42.122;24.734;2023-04-24T14:35:22;6.80;;;3.42;;
79761;SDS011;69249;42.122;24.734;2023-04-24T14:37:48;6.55;;;3.50;;
79761;SDS011;69249;42.122;24.734;2023-04-24T14:40:14;4.53;;;3.90;;
79761;SDS011;69249;42.122;24.734;2023-04-24T14:42:40;4.00;;;3.40;;
79761;SDS011;69249;42.122;24.734;2023-04-24T14:45:06;4.43;;;3.40;;
79761;SDS011;69249;42.122;24.734;2023-04-24T14:47:33;5.53;;;3.70;;
79761;SDS011;69249;42.122;24.734;2023-04-24T14:49:58;5.97;;;3.70;;
79761;SDS011;69249;42.122;24.734;2023-04-24T14:52:24;3.50;;;3.20;;
79761;SDS011;69249;42.122;24.734;2023-04-24T14:54:50;8.57;;;3.72;;
79761;SDS011;69249;42.122;24.734;2023-04-24T14:57:16;15.98;;;3.90;;
79761;SDS011;69249;42.122;24.734;2023-04-24T14:59:41;19.67;;;4.10;;
79761;SDS011;69249;42.122;24.734;2023-04-24T15:02:07;8.18;;;3.92;;
79761;SDS011;69249;42.122;24.734;2023-04-24T15:04:33;7.65;;;3.75;;
79761;SDS011;69249;42.122;24.734;2023-04-24T15:06:58;5.88;;;3.92;;
79761;SDS011;69249;42.122;24.734;2023-04-24T15:09:24;4.78;;;3.80;;